Time;durP1;ratioP1;P1;durP2;ratioP2;P2;SDS_P1;SDS_P2;PMS_P1;PMS_P2;Temp;Humidity;BMP_temperature;BMP_pressure;BME280_temperature;BME280_humidity;BME280_pressure;Samples;Min_cycle;Max_cycle;Signal;HPM_P1;HPM_P2
2022/11/11 00:01:24;;;;;;;6.13;1.97;;;;;;;;;;5099334;28;20448;-71
2022/11/11 00:03:56;;;;;;;7.17;1.90;;;;;;;;;;5099352;28;20778;-70
2022/11/11 00:06:24;;;;;;;7.83;2.40;;;;;;;;;;5097197;28;20489;-70
2022/11/11 00:08:52;;;;;;;3.10;1.60;;;;;;;;;;5098805;28;20868;-70
2022/11/11 00:11:21;;;;;;;9.13;2.00;;;;;;;;;;5097644;28;20461;-70
2022/11/11 00:13:49;;;;;;;5.77;1.57;;;;;;;;;;5098460;28;20456;-70
2022/11/11 00:16:17;;;;;;;6.07;2.00;;;;;;;;;;5098402;28;20478;-70
2022/11/11 00:27:14;;;;;;;5.50;2.30;;;;;;;;;;5098213;28;20753;-71
2022/11/11 00:29:42;;;;;;;5.60;2.10;;;;;;;;;;5098394;28;20487;-70
2022/11/11 00:32:27;;;;;;;2.87;1.30;;;;;;;;;;5099082;28;20451;-70
2022/11/11 00:37:41;;;;;;;4.97;1.57;;;;;;;;;;5098260;28;20474;-70
2022/11/11 00:40:09;;;;;;;8.20;2.50;;;;;;;;;;5098865;28;20469;-69
2022/11/11 00:42:39;;;;;;;3.47;1.93;;;;;;;;;;5100405;28;20451;-70
2022/11/11 00:45:07;;;;;;;6.50;1.87;;;;;;;;;;5117627;28;20781;-70
2022/11/11 00:53:09;;;;;;;3.70;1.87;;;;;;;;;;5117351;28;20450;-70
2022/11/11 00:55:36;;;;;;;3.97;2.10;;;;;;;;;;5129840;27;20489;-70
2022/11/11 00:58:05;;;;;;;6.87;1.87;;;;;;;;;;5138617;27;20458;-70
2022/11/11 01:00:33;;;;;;;3.70;1.27;;;;;;;;;;5138381;27;20990;-70
2022/11/11 01:03:01;;;;;;;11.60;2.30;;;;;;;;;;5137828;27;20453;-70
2022/11/11 01:05:29;;;;;;;5.03;1.70;;;;;;;;;;5138892;27;20482;-69
2022/11/11 01:07:56;;;;;;;3.30;2.17;;;;;;;;;;5138060;27;20442;-70
2022/11/11 01:10:40;;;;;;;5.53;1.70;;;;;;;;;;5138246;27;20462;-70
2022/11/11 01:13:15;;;;;;;5.17;1.73;;;;;;;;;;5134805;27;20500;-70
2022/11/11 01:15:43;;;;;;;6.03;2.23;;;;;;;;;;5142053;27;20453;-70
2022/11/11 01:18:14;;;;;;;2.77;1.30;;;;;;;;;;5146314;27;20499;-70
2022/11/11 01:20:44;;;;;;;4.70;1.70;;;;;;;;;;5138038;27;20450;-72
2022/11/11 01:23:13;;;;;;;1.63;0.77;;;;;;;;;;5138108;27;20448;-70
2022/11/11 01:25:45;;;;;;;3.57;1.33;;;;;;;;;;5133141;27;20964;-70
2022/11/11 01:28:16;;;;;;;4.07;1.93;;;;;;;;;;5131235;27;20530;-70
2022/11/11 01:30:43;;;;;;;4.40;1.90;;;;;;;;;;5135250;27;20461;-71
2022/11/11 01:33:19;;;;;;;3.30;2.00;;;;;;;;;;5127175;27;20442;-71
2022/11/11 01:35:50;;;;;;;8.30;2.10;;;;;;;;;;5124891;27;20450;-70
2022/11/11 01:38:18;;;;;;;3.50;2.30;;;;;;;;;;5131652;27;20457;-70
2022/11/11 01:40:54;;;;;;;5.47;2.10;;;;;;;;;;5123275;27;20458;-71
2022/11/11 01:43:26;;;;;;;8.17;2.63;;;;;;;;;;5132245;27;20519;-71
2022/11/11 01:45:58;;;;;;;3.30;1.97;;;;;;;;;;5137771;27;20492;-71
2022/11/11 01:51:20;;;;;;;7.43;2.40;;;;;;;;;;5134301;27;20892;-70
2022/11/11 01:53:50;;;;;;;5.17;1.63;;;;;;;;;;5125608;27;20522;-71
2022/11/11 01:56:18;;;;;;;9.23;2.50;;;;;;;;;;5137804;27;20462;-70
2022/11/11 01:58:47;;;;;;;5.07;1.90;;;;;;;;;;5137065;27;20449;-70
2022/11/11 02:01:14;;;;;;;5.93;2.00;;;;;;;;;;5135472;27;20852;-70
2022/11/11 02:05:41;;;;;;;4.20;1.80;;;;;;;;;;5123953;27;20458;-70
2022/11/11 02:06:30;;;;;;;6.83;2.00;;;;;;;;;;5116560;28;20577;-70
2022/11/11 02:08:58;;;;;;;3.87;1.70;;;;;;;;;;5126426;27;20446;-70
2022/11/11 02:16:58;;;;;;;5.07;2.30;;;;;;;;;;5136929;27;20441;-70
2022/11/11 02:19:31;;;;;;;4.70;2.93;;;;;;;;;;5135736;27;20453;-70
2022/11/11 02:22:00;;;;;;;8.00;2.27;;;;;;;;;;5134511;27;20527;-70
2022/11/11 02:24:29;;;;;;;7.40;1.90;;;;;;;;;;5124310;27;20446;-70
2022/11/11 02:26:58;;;;;;;12.70;2.30;;;;;;;;;;5116847;28;20508;-70
2022/11/11 02:29:25;;;;;;;6.20;2.03;;;;;;;;;;5124897;28;20454;-71
2022/11/11 02:31:53;;;;;;;5.43;2.27;;;;;;;;;;5136973;28;20741;-71
2022/11/11 02:34:20;;;;;;;4.63;2.60;;;;;;;;;;5137080;28;20449;-71
2022/11/11 02:36:55;;;;;;;5.70;2.53;;;;;;;;;;5136803;27;20457;-69
2022/11/11 02:39:23;;;;;;;10.40;2.83;;;;;;;;;;5137463;27;20449;-71
2022/11/11 02:41:59;;;;;;;5.77;1.60;;;;;;;;;;5134941;28;20450;-70
2022/11/11 02:44:30;;;;;;;7.50;2.27;;;;;;;;;;5136794;28;20452;-70
2022/11/11 02:46:58;;;;;;;13.07;2.50;;;;;;;;;;5136276;28;20513;-70
2022/11/11 02:49:28;;;;;;;5.93;1.50;;;;;;;;;;5116099;28;20810;-70
2022/11/11 02:51:59;;;;;;;5.03;2.03;;;;;;;;;;5132443;27;20469;-70
2022/11/11 02:54:26;;;;;;;4.10;2.13;;;;;;;;;;5137083;27;20561;-70
2022/11/11 02:57:08;;;;;;;7.20;2.60;;;;;;;;;;5136782;27;20446;-70
2022/11/11 02:59:36;;;;;;;8.30;2.23;;;;;;;;;;5136593;27;20963;-69
2022/11/11 03:02:05;;;;;;;7.27;2.10;;;;;;;;;;5137085;27;20450;-69
2022/11/11 03:04:33;;;;;;;9.33;2.30;;;;;;;;;;5136819;27;20462;-70
2022/11/11 03:07:01;;;;;;;10.13;2.67;;;;;;;;;;5136860;27;20853;-69
2022/11/11 03:09:28;;;;;;;6.87;2.50;;;;;;;;;;5136374;27;20445;-71
2022/11/11 03:11:57;;;;;;;7.00;2.20;;;;;;;;;;5136862;27;20450;-71
2022/11/11 03:14:26;;;;;;;5.20;1.90;;;;;;;;;;5137030;27;20710;-71
2022/11/11 03:19:39;;;;;;;6.13;2.97;;;;;;;;;;5140243;27;20844;-71
2022/11/11 03:22:06;;;;;;;3.33;1.80;;;;;;;;;;5140643;27;20511;-71
2022/11/11 03:27:20;;;;;;;4.20;2.10;;;;;;;;;;5140224;27;20464;-71
2022/11/11 03:29:47;;;;;;;11.30;1.90;;;;;;;;;;5140442;27;20464;-71
2022/11/11 03:32:15;;;;;;;10.80;3.70;;;;;;;;;;5140203;27;20540;-71
2022/11/11 03:34:43;;;;;;;6.20;2.10;;;;;;;;;;5140099;27;20465;-71
2022/11/11 03:39:57;;;;;;;4.77;2.83;;;;;;;;;;5140141;27;20437;-71
2022/11/11 03:42:26;;;;;;;4.97;3.00;;;;;;;;;;5140142;27;20449;-70
2022/11/11 03:45:00;;;;;;;8.63;1.57;;;;;;;;;;5140019;27;20465;-70
2022/11/11 03:47:30;;;;;;;3.50;1.90;;;;;;;;;;5138914;27;20470;-70
2022/11/11 03:49:57;;;;;;;4.90;2.20;;;;;;;;;;5140148;27;20749;-70
2022/11/11 03:52:25;;;;;;;4.43;2.57;;;;;;;;;;5140040;27;20787;-70
2022/11/11 03:54:53;;;;;;;6.03;2.03;;;;;;;;;;5139600;27;20735;-70
2022/11/11 03:57:32;;;;;;;6.73;3.00;;;;;;;;;;5140045;27;20476;-69
2022/11/11 04:00:10;;;;;;;4.20;2.40;;;;;;;;;;5140275;27;20458;-70
2022/11/11 04:10:58;;;;;;;10.87;2.50;;;;;;;;;;5139535;27;20479;-71
2022/11/11 04:16:16;;;;;;;3.60;1.73;;;;;;;;;;5139046;27;20421;-69
2022/11/11 04:21:46;;;;;;;4.17;3.00;;;;;;;;;;5139500;27;20479;-70
2022/11/11 04:27:13;;;;;;;4.83;2.47;;;;;;;;;;5055177;28;20500;-71
2022/11/11 04:29:46;;;;;;;3.30;1.80;;;;;;;;;;5075680;28;20584;-70
2022/11/11 04:35:02;;;;;;;4.30;1.73;;;;;;;;;;5076055;28;20427;-71
2022/11/11 04:37:39;;;;;;;5.67;1.97;;;;;;;;;;5117764;27;20453;-70
2022/11/11 04:42:58;;;;;;;7.90;2.33;;;;;;;;;;5138499;27;20417;-70
2022/11/11 04:45:35;;;;;;;7.87;3.57;;;;;;;;;;5126938;27;20459;-70
2022/11/11 04:48:07;;;;;;;4.47;2.30;;;;;;;;;;5154014;27;20499;-70
2022/11/11 04:50:37;;;;;;;5.27;2.47;;;;;;;;;;5159376;27;20928;-69
2022/11/11 04:53:12;;;;;;;6.87;2.80;;;;;;;;;;5159792;27;20444;-70
2022/11/11 04:58:29;;;;;;;5.67;2.57;;;;;;;;;;5158690;27;20518;-70
2022/11/11 05:01:03;;;;;;;4.80;2.07;;;;;;;;;;5159087;27;20461;-70
2022/11/11 05:03:31;;;;;;;7.17;2.90;;;;;;;;;;5158927;27;20876;-70
2022/11/11 05:08:59;;;;;;;3.37;2.17;;;;;;;;;;5138094;27;20917;-70
2022/11/11 05:11:27;;;;;;;9.20;3.30;;;;;;;;;;5138070;27;20469;-71
2022/11/11 05:22:28;;;;;;;4.70;2.93;;;;;;;;;;5137499;27;20896;-70
2022/11/11 05:27:43;;;;;;;11.37;2.50;;;;;;;;;;5137675;27;20528;-70
2022/11/11 05:30:12;;;;;;;8.80;2.23;;;;;;;;;;5130082;27;20451;-70
2022/11/11 05:32:45;;;;;;;7.07;2.47;;;;;;;;;;5133430;27;20446;-71
2022/11/11 05:35:14;;;;;;;5.87;2.83;;;;;;;;;;5137713;27;20533;-70
2022/11/11 05:37:42;;;;;;;5.47;2.97;;;;;;;;;;5137174;27;20434;-69
2022/11/11 05:40:13;;;;;;;4.80;1.73;;;;;;;;;;5137456;27;20450;-71
2022/11/11 05:42:43;;;;;;;3.53;1.63;;;;;;;;;;5136892;27;20446;-71
2022/11/11 05:45:11;;;;;;;9.73;3.00;;;;;;;;;;5137680;27;20450;-71
2022/11/11 05:47:39;;;;;;;4.20;2.60;;;;;;;;;;5137265;27;21130;-70
2022/11/11 05:50:07;;;;;;;6.10;3.00;;;;;;;;;;5137075;27;20838;-70
2022/11/11 05:52:36;;;;;;;5.13;3.00;;;;;;;;;;5137598;27;20760;-70
2022/11/11 05:55:03;;;;;;;4.90;2.53;;;;;;;;;;5136641;27;20454;-70
2022/11/11 05:57:31;;;;;;;4.13;2.37;;;;;;;;;;5136666;27;20453;-70
2022/11/11 05:59:59;;;;;;;9.37;3.23;;;;;;;;;;5136707;27;20454;-70
2022/11/11 06:02:26;;;;;;;6.87;2.87;;;;;;;;;;5137329;27;20725;-70
2022/11/11 06:04:54;;;;;;;5.07;2.70;;;;;;;;;;5136586;27;20458;-71
2022/11/11 06:07:21;;;;;;;9.07;2.80;;;;;;;;;;5135953;27;20474;-69
2022/11/11 06:10:29;;;;;;;8.20;1.97;;;;;;;;;;5135937;27;20536;-70
2022/11/11 06:15:24;;;;;;;6.60;2.10;;;;;;;;;;5124498;27;20434;-71
2022/11/11 06:17:53;;;;;;;11.27;3.00;;;;;;;;;;5115661;27;21082;-71
2022/11/11 06:20:23;;;;;;;9.47;3.33;;;;;;;;;;5135836;27;20457;-71
2022/11/11 06:22:57;;;;;;;9.20;2.93;;;;;;;;;;5134865;27;20757;-70
2022/11/11 06:28:11;;;;;;;8.60;3.10;;;;;;;;;;5134758;27;21030;-70
2022/11/11 06:30:39;;;;;;;8.07;2.50;;;;;;;;;;5134575;28;20464;-70
2022/11/11 06:33:08;;;;;;;6.37;2.90;;;;;;;;;;5133258;28;20457;-71
2022/11/11 06:35:36;;;;;;;8.30;2.70;;;;;;;;;;5134098;28;20888;-70
2022/11/11 06:38:06;;;;;;;3.87;2.47;;;;;;;;;;5134041;28;20543;-71
2022/11/11 06:40:35;;;;;;;9.40;2.97;;;;;;;;;;5133563;27;20442;-70
2022/11/11 06:43:03;;;;;;;8.20;3.40;;;;;;;;;;5133795;27;20454;-72
2022/11/11 06:45:39;;;;;;;5.07;2.70;;;;;;;;;;5121172;27;20462;-73
2022/11/11 06:48:07;;;;;;;5.10;3.50;;;;;;;;;;5132916;28;20565;-72
2022/11/11 06:50:36;;;;;;;5.90;2.97;;;;;;;;;;5134807;27;20540;-73
2022/11/11 06:53:06;;;;;;;5.67;3.37;;;;;;;;;;5139822;27;20442;-73
2022/11/11 06:55:35;;;;;;;16.17;4.43;;;;;;;;;;5137468;27;20458;-74
2022/11/11 06:58:06;;;;;;;4.93;2.63;;;;;;;;;;5138031;27;20465;-73
2022/11/11 07:00:35;;;;;;;9.90;3.57;;;;;;;;;;5138202;27;20450;-73
2022/11/11 07:03:02;;;;;;;12.30;3.23;;;;;;;;;;5130614;27;20461;-73
2022/11/11 07:05:31;;;;;;;10.90;3.60;;;;;;;;;;5117836;28;20455;-73
2022/11/11 07:08:02;;;;;;;9.53;4.30;;;;;;;;;;5118199;28;20474;-73
2022/11/11 07:10:30;;;;;;;6.00;2.97;;;;;;;;;;5117655;28;20454;-72
2022/11/11 07:12:59;;;;;;;4.33;3.43;;;;;;;;;;5117904;27;20451;-72
2022/11/11 07:15:29;;;;;;;6.90;3.37;;;;;;;;;;5116724;28;20867;-72
2022/11/11 07:17:57;;;;;;;7.60;3.93;;;;;;;;;;5118889;27;20730;-72
2022/11/11 07:20:30;;;;;;;5.67;3.17;;;;;;;;;;5127795;27;20486;-73
2022/11/11 07:23:01;;;;;;;11.33;5.33;;;;;;;;;;5117841;27;20878;-72
2022/11/11 07:25:29;;;;;;;6.07;4.17;;;;;;;;;;5137972;27;20514;-74
2022/11/11 07:28:01;;;;;;;8.47;4.70;;;;;;;;;;5134875;27;20561;-73
2022/11/11 07:30:29;;;;;;;10.30;4.37;;;;;;;;;;5136838;27;20461;-74
2022/11/11 07:32:57;;;;;;;12.10;5.37;;;;;;;;;;5133378;27;20465;-73
2022/11/11 07:35:25;;;;;;;9.57;5.40;;;;;;;;;;5136388;27;20951;-73
2022/11/11 07:37:52;;;;;;;9.07;4.83;;;;;;;;;;5131482;27;20702;-72
2022/11/11 07:40:21;;;;;;;15.97;4.87;;;;;;;;;;5128271;27;20818;-72
2022/11/11 07:42:48;;;;;;;10.47;5.07;;;;;;;;;;5140266;27;20458;-72
2022/11/11 07:45:18;;;;;;;9.37;4.23;;;;;;;;;;5138638;27;20754;-72
2022/11/11 07:47:48;;;;;;;9.70;5.10;;;;;;;;;;5146744;27;20476;-73
2022/11/11 07:50:16;;;;;;;10.33;5.63;;;;;;;;;;5146995;27;20444;-73
2022/11/11 07:52:49;;;;;;;12.07;5.93;;;;;;;;;;5143520;27;20482;-72
2022/11/11 07:55:20;;;;;;;11.50;4.33;;;;;;;;;;5138021;27;20461;-72
2022/11/11 07:57:47;;;;;;;13.17;5.10;;;;;;;;;;5138224;27;20478;-72
2022/11/11 08:00:19;;;;;;;9.30;4.70;;;;;;;;;;5139307;27;21014;-72
2022/11/11 08:03:06;;;;;;;17.90;5.60;;;;;;;;;;5134297;27;20520;-72
2022/11/11 08:05:38;;;;;;;9.30;5.03;;;;;;;;;;5136420;27;20457;-73
2022/11/11 08:08:19;;;;;;;12.10;6.03;;;;;;;;;;5137362;27;20511;-71
2022/11/11 08:10:48;;;;;;;11.47;5.20;;;;;;;;;;5157320;27;20445;-72
2022/11/11 08:16:05;;;;;;;12.23;5.83;;;;;;;;;;5139135;27;20417;-72
2022/11/11 08:18:33;;;;;;;12.33;5.40;;;;;;;;;;5138420;27;20523;-72
2022/11/11 08:21:01;;;;;;;14.30;5.60;;;;;;;;;;5126819;27;20450;-69
2022/11/11 08:23:34;;;;;;;12.33;5.20;;;;;;;;;;5121695;27;20462;-70
2022/11/11 08:26:06;;;;;;;11.90;4.63;;;;;;;;;;5138323;27;20449;-69
2022/11/11 08:28:35;;;;;;;7.53;5.23;;;;;;;;;;5136032;27;20487;-69
2022/11/11 08:31:04;;;;;;;7.40;4.03;;;;;;;;;;5129079;27;20455;-69
2022/11/11 08:33:36;;;;;;;7.40;5.10;;;;;;;;;;5134600;27;20457;-69
2022/11/11 08:36:10;;;;;;;9.37;5.57;;;;;;;;;;5124374;27;20483;-69
2022/11/11 08:38:38;;;;;;;10.97;6.03;;;;;;;;;;5127519;27;20441;-70
2022/11/11 08:41:28;;;;;;;12.07;6.43;;;;;;;;;;5134418;27;20477;-70
2022/11/11 08:43:58;;;;;;;11.33;6.23;;;;;;;;;;5137971;27;20481;-70
2022/11/11 08:46:27;;;;;;;10.33;6.33;;;;;;;;;;5136982;27;20476;-70
2022/11/11 08:48:55;;;;;;;15.20;6.93;;;;;;;;;;5131173;27;20470;-70
2022/11/11 08:51:38;;;;;;;12.47;6.60;;;;;;;;;;5136489;27;20884;-70
2022/11/11 08:54:19;;;;;;;14.77;6.70;;;;;;;;;;5137854;27;20853;-70
2022/11/11 08:56:47;;;;;;;10.90;5.10;;;;;;;;;;5131886;27;20808;-70
2022/11/11 08:59:25;;;;;;;17.67;6.07;;;;;;;;;;5134700;27;20454;-70
2022/11/11 09:01:56;;;;;;;11.37;5.87;;;;;;;;;;5153438;27;20787;-70
2022/11/11 09:04:24;;;;;;;9.53;6.97;;;;;;;;;;5137247;27;20446;-70
2022/11/11 09:06:52;;;;;;;10.63;5.50;;;;;;;;;;5131479;27;20489;-69
2022/11/11 09:09:25;;;;;;;7.73;5.90;;;;;;;;;;5136509;27;20478;-69
2022/11/11 09:11:53;;;;;;;9.23;5.80;;;;;;;;;;5137250;27;20457;-71
2022/11/11 09:14:21;;;;;;;10.57;6.23;;;;;;;;;;5137004;27;20442;-69
2022/11/11 09:16:48;;;;;;;9.40;6.03;;;;;;;;;;5134644;27;20498;-69
2022/11/11 09:19:18;;;;;;;11.80;5.30;;;;;;;;;;5136814;27;21068;-69
2022/11/11 09:21:46;;;;;;;15.00;5.90;;;;;;;;;;5127365;27;20462;-69
2022/11/11 09:24:14;;;;;;;12.73;5.67;;;;;;;;;;5132486;27;20453;-72
2022/11/11 09:26:56;;;;;;;7.20;5.97;;;;;;;;;;5137361;27;20495;-71
2022/11/11 09:29:24;;;;;;;7.43;5.17;;;;;;;;;;5137240;27;20473;-74
2022/11/11 09:31:57;;;;;;;11.20;5.53;;;;;;;;;;5137727;27;20773;-71
2022/11/11 09:34:30;;;;;;;7.10;4.67;;;;;;;;;;5137099;27;20481;-73
2022/11/11 09:36:58;;;;;;;7.93;4.93;;;;;;;;;;5122930;27;20443;-72
2022/11/11 09:39:32;;;;;;;12.20;6.17;;;;;;;;;;5117019;28;20505;-72
2022/11/11 09:42:06;;;;;;;8.53;5.30;;;;;;;;;;5115263;28;20872;-73
2022/11/11 09:44:43;;;;;;;10.90;6.60;;;;;;;;;;5117238;27;20888;-72
2022/11/11 09:47:17;;;;;;;11.30;6.67;;;;;;;;;;5136237;27;20441;-71
2022/11/11 09:50:11;;;;;;;;;;;;;;;;;;;;;
2022/11/11 09:52:43;;;;;;;9.80;5.20;;;;;;;;;;5136275;27;21031;-72
2022/11/11 09:55:39;;;;;;;9.60;5.80;;;;;;;;;;5135796;27;20487;-72
2022/11/11 09:58:13;;;;;;;10.10;6.50;;;;;;;;;;5135816;27;20446;-71
2022/11/11 10:01:01;;;;;;;10.23;5.57;;;;;;;;;;5136312;27;20981;-74
2022/11/11 10:03:35;;;;;;;11.30;5.40;;;;;;;;;;5137092;27;20515;-74
2022/11/11 10:06:08;;;;;;;8.70;4.80;;;;;;;;;;5137316;27;20544;-72
2022/11/11 10:08:39;;;;;;;9.93;5.47;;;;;;;;;;5118876;27;20769;-73
2022/11/11 10:11:25;;;;;;;8.77;5.33;;;;;;;;;;5136579;27;20457;-72
2022/11/11 10:13:58;;;;;;;11.07;7.03;;;;;;;;;;5156980;27;20860;-72
2022/11/11 10:16:33;;;;;;;7.37;5.83;;;;;;;;;;5157171;27;20453;-72
2022/11/11 10:19:06;;;;;;;9.20;5.53;;;;;;;;;;5154182;27;20520;-72
2022/11/11 10:21:39;;;;;;;7.70;5.30;;;;;;;;;;5123049;27;20527;-72
2022/11/11 10:27:00;;;;;;;11.53;4.40;;;;;;;;;;5128608;27;20465;-71
2022/11/11 10:29:31;;;;;;;12.23;7.00;;;;;;;;;;5134372;27;20509;-70
2022/11/11 10:32:05;;;;;;;9.33;5.40;;;;;;;;;;5135581;27;20778;-69
2022/11/11 10:34:34;;;;;;;9.00;4.77;;;;;;;;;;5135136;27;20451;-72
2022/11/11 10:37:06;;;;;;;9.20;4.63;;;;;;;;;;5136821;27;20849;-72
2022/11/11 10:39:56;;;;;;;9.53;5.27;;;;;;;;;;5136968;28;20451;-71
2022/11/11 10:42:24;;;;;;;13.90;5.80;;;;;;;;;;5135718;27;20441;-72
2022/11/11 10:44:54;;;;;;;5.67;2.90;;;;;;;;;;5130284;28;20449;-71
2022/11/11 10:47:30;;;;;;;8.17;5.23;;;;;;;;;;5129793;27;20865;-71
2022/11/11 10:53:03;;;;;;;11.77;6.07;;;;;;;;;;5134816;27;20430;-71
2022/11/11 10:55:36;;;;;;;8.23;4.07;;;;;;;;;;5134288;27;20570;-70
2022/11/11 10:58:10;;;;;;;7.87;3.87;;;;;;;;;;5134702;27;20438;-70
2022/11/11 11:00:42;;;;;;;7.30;4.13;;;;;;;;;;5134548;28;20443;-71
2022/11/11 11:03:16;;;;;;;8.43;3.97;;;;;;;;;;5134692;27;20449;-72
2022/11/11 11:05:47;;;;;;;6.03;4.33;;;;;;;;;;5135186;28;20447;-71
2022/11/11 11:08:21;;;;;;;9.10;4.10;;;;;;;;;;5133809;27;20753;-70
2022/11/11 11:10:53;;;;;;;7.47;4.43;;;;;;;;;;5130216;27;20458;-70
2022/11/11 11:13:24;;;;;;;6.17;4.43;;;;;;;;;;5126638;27;20512;-71
2022/11/11 11:15:59;;;;;;;6.33;4.20;;;;;;;;;;5133986;28;20465;-71
2022/11/11 11:18:27;;;;;;;6.70;3.80;;;;;;;;;;5129931;28;20458;-74
2022/11/11 11:21:05;;;;;;;9.03;4.87;;;;;;;;;;5123192;28;20446;-73
2022/11/11 11:23:39;;;;;;;8.20;4.97;;;;;;;;;;5138294;28;20457;-73
2022/11/11 11:26:08;;;;;;;7.43;4.90;;;;;;;;;;5137019;27;20477;-75
2022/11/11 11:28:38;;;;;;;7.97;4.97;;;;;;;;;;5133961;28;20489;-74
2022/11/11 11:31:09;;;;;;;7.00;4.60;;;;;;;;;;5133356;28;20948;-73
2022/11/11 11:33:56;;;;;;;5.20;3.60;;;;;;;;;;5115262;28;20750;-75
2022/11/11 11:36:36;;;;;;;6.30;3.97;;;;;;;;;;5133915;27;20785;-75
2022/11/11 11:39:13;;;;;;;6.10;4.03;;;;;;;;;;5138228;27;20575;-75
2022/11/11 11:41:49;;;;;;;7.10;5.07;;;;;;;;;;5137423;27;20900;-74
2022/11/11 11:44:27;;;;;;;7.07;4.37;;;;;;;;;;5138377;27;20547;-73
2022/11/11 11:46:56;;;;;;;7.53;4.90;;;;;;;;;;5136562;27;20445;-74
2022/11/11 11:49:34;;;;;;;6.67;4.07;;;;;;;;;;5136858;27;21145;-72
2022/11/11 11:52:10;;;;;;;13.23;6.67;;;;;;;;;;5136331;27;20536;-72
2022/11/11 11:54:59;;;;;;;7.63;4.80;;;;;;;;;;5137092;27;20536;-72
2022/11/11 11:57:46;;;;;;;7.40;5.23;;;;;;;;;;5134133;27;20465;-73
2022/11/11 12:00:32;;;;;;;8.33;4.97;;;;;;;;;;5121698;27;20447;-72
2022/11/11 12:03:27;;;;;;;7.90;4.63;;;;;;;;;;5135883;27;20461;-72
2022/11/11 12:06:09;;;;;;;8.00;5.60;;;;;;;;;;5131367;27;20652;-71
2022/11/11 12:08:51;;;;;;;10.30;5.63;;;;;;;;;;5118328;28;20486;-71
2022/11/11 12:11:32;;;;;;;10.40;5.13;;;;;;;;;;5120535;27;20454;-70
2022/11/11 12:14:28;;;;;;;11.00;4.47;;;;;;;;;;5117744;28;20451;-69
2022/11/11 12:17:08;;;;;;;13.77;6.13;;;;;;;;;;5075097;28;20549;-69
2022/11/11 12:19:43;;;;;;;6.40;4.23;;;;;;;;;;5116578;27;20713;-69
2022/11/11 12:22:21;;;;;;;7.67;5.53;;;;;;;;;;5125568;27;21020;-69
2022/11/11 12:27:39;;;;;;;8.87;4.80;;;;;;;;;;5134454;27;20507;-69
2022/11/11 12:30:12;;;;;;;6.20;3.83;;;;;;;;;;5132566;27;20480;-70
2022/11/11 12:32:57;;;;;;;8.67;3.97;;;;;;;;;;5133243;27;20798;-69
2022/11/11 12:35:32;;;;;;;8.83;4.63;;;;;;;;;;5134034;27;20457;-68
2022/11/11 12:38:15;;;;;;;6.27;3.97;;;;;;;;;;5135203;27;20521;-69
2022/11/11 12:40:52;;;;;;;8.60;3.90;;;;;;;;;;5133885;27;20452;-69
2022/11/11 12:43:23;;;;;;;17.93;8.43;;;;;;;;;;5134837;27;20877;-69
2022/11/11 12:45:56;;;;;;;6.70;3.77;;;;;;;;;;5125252;27;20484;-71
2022/11/11 12:48:39;;;;;;;6.30;4.30;;;;;;;;;;5131051;27;20464;-70
2022/11/11 12:51:13;;;;;;;6.27;3.73;;;;;;;;;;5137270;27;20445;-69
2022/11/11 12:53:48;;;;;;;8.13;3.73;;;;;;;;;;5136224;27;20484;-69
2022/11/11 12:56:24;;;;;;;4.60;3.37;;;;;;;;;;5136235;27;20867;-70
2022/11/11 12:58:57;;;;;;;6.13;3.40;;;;;;;;;;5135773;27;20445;-69
2022/11/11 13:01:38;;;;;;;5.13;2.63;;;;;;;;;;5136441;27;20524;-70
2022/11/11 13:04:23;;;;;;;8.07;3.30;;;;;;;;;;5115524;28;20482;-69
2022/11/11 13:06:57;;;;;;;4.03;2.80;;;;;;;;;;5115480;28;20435;-69
2022/11/11 13:09:30;;;;;;;12.60;2.90;;;;;;;;;;5122413;27;20473;-69
2022/11/11 13:12:04;;;;;;;5.73;2.43;;;;;;;;;;5134875;27;20516;-69
2022/11/11 13:14:53;;;;;;;2.90;2.20;;;;;;;;;;5132649;27;20466;-70
2022/11/11 13:17:21;;;;;;;5.43;1.43;;;;;;;;;;5125390;27;20539;-69
2022/11/11 13:19:52;;;;;;;5.43;2.00;;;;;;;;;;5121015;27;20532;-70
2022/11/11 13:22:22;;;;;;;6.17;2.50;;;;;;;;;;5114405;28;20524;-69
2022/11/11 13:24:55;;;;;;;3.43;1.57;;;;;;;;;;5115330;28;20470;-69
2022/11/11 13:27:31;;;;;;;5.03;1.73;;;;;;;;;;5126062;27;20461;-69
2022/11/11 13:30:16;;;;;;;5.50;1.80;;;;;;;;;;5114712;28;21202;-70
2022/11/11 13:32:59;;;;;;;5.30;1.70;;;;;;;;;;5115665;28;20450;-69
2022/11/11 13:35:47;;;;;;;3.20;1.60;;;;;;;;;;5133318;27;20489;-69
2022/11/11 13:38:29;;;;;;;4.30;1.63;;;;;;;;;;5120017;27;20458;-68
2022/11/11 13:41:08;;;;;;;6.53;2.20;;;;;;;;;;5130461;27;20518;-71
2022/11/11 13:43:46;;;;;;;7.40;3.30;;;;;;;;;;5130823;27;20536;-71
2022/11/11 13:46:34;;;;;;;9.30;2.90;;;;;;;;;;5129214;27;20464;-71
2022/11/11 13:49:03;;;;;;;4.30;2.57;;;;;;;;;;5133879;27;20637;-69
2022/11/11 13:51:38;;;;;;;10.60;3.10;;;;;;;;;;5133266;27;20466;-71
2022/11/11 13:54:13;;;;;;;4.33;1.63;;;;;;;;;;5133971;27;20889;-70
2022/11/11 13:56:46;;;;;;;4.57;1.90;;;;;;;;;;5134962;27;21115;-69
2022/11/11 13:59:26;;;;;;;7.03;2.20;;;;;;;;;;5132344;27;20469;-69
2022/11/11 14:02:13;;;;;;;4.60;2.20;;;;;;;;;;5114589;28;20453;-70
2022/11/11 14:05:09;;;;;;;4.27;1.53;;;;;;;;;;5114401;28;20458;-71
2022/11/11 14:08:04;;;;;;;4.50;1.27;;;;;;;;;;5115091;28;21093;-69
2022/11/11 14:10:51;;;;;;;4.40;2.00;;;;;;;;;;5079294;27;20491;-69
2022/11/11 14:13:38;;;;;;;7.33;2.10;;;;;;;;;;5132748;27;20536;-69
2022/11/11 14:16:06;;;;;;;4.70;1.93;;;;;;;;;;5134022;27;20522;-68
2022/11/11 14:19:10;;;;;;;6.13;1.37;;;;;;;;;;5132805;27;20458;-70
2022/11/11 14:21:48;;;;;;;10.20;2.80;;;;;;;;;;5132889;27;20437;-70
2022/11/11 14:24:24;;;;;;;8.10;5.80;;;;;;;;;;5133639;27;20446;-69
2022/11/11 14:27:00;;;;;;;3.30;1.70;;;;;;;;;;5137193;27;20452;-69
2022/11/11 14:29:35;;;;;;;5.60;1.20;;;;;;;;;;5143352;27;20540;-69
2022/11/11 14:32:06;;;;;;;5.00;1.70;;;;;;;;;;5143659;27;20524;-69
2022/11/11 14:34:58;;;;;;;4.97;1.63;;;;;;;;;;5133489;27;20892;-69
2022/11/11 14:37:33;;;;;;;5.60;1.50;;;;;;;;;;5123693;28;20582;-69
2022/11/11 14:40:05;;;;;;;6.13;1.73;;;;;;;;;;5135121;27;20453;-69
2022/11/11 14:42:47;;;;;;;4.60;1.60;;;;;;;;;;5152917;27;20487;-69
2022/11/11 14:45:34;;;;;;;4.20;1.70;;;;;;;;;;5121209;27;20473;-71
2022/11/11 14:48:02;;;;;;;5.60;1.47;;;;;;;;;;5118486;28;20438;-68
2022/11/11 14:50:43;;;;;;;4.00;1.60;;;;;;;;;;5137906;27;20975;-69
2022/11/11 14:53:17;;;;;;;3.80;1.70;;;;;;;;;;5134147;27;20514;-69
2022/11/11 14:55:51;;;;;;;2.93;1.53;;;;;;;;;;5118295;28;20504;-68
2022/11/11 14:58:22;;;;;;;5.33;2.00;;;;;;;;;;5129127;27;20476;-68
2022/11/11 15:00:53;;;;;;;2.87;1.50;;;;;;;;;;5131937;27;20453;-69
2022/11/11 15:03:26;;;;;;;5.27;1.90;;;;;;;;;;5134414;27;20469;-69
2022/11/11 15:05:56;;;;;;;3.70;1.50;;;;;;;;;;5129249;27;20517;-69
2022/11/11 15:08:26;;;;;;;6.80;1.50;;;;;;;;;;5115162;28;20447;-70
2022/11/11 15:11:10;;;;;;;3.80;1.63;;;;;;;;;;5127392;27;20572;-69
2022/11/11 15:14:01;;;;;;;7.53;1.93;;;;;;;;;;5138055;27;20461;-70
2022/11/11 15:16:38;;;;;;;3.87;1.37;;;;;;;;;;5116486;27;20485;-69
2022/11/11 15:19:13;;;;;;;5.97;1.83;;;;;;;;;;5137046;27;20449;-70
2022/11/11 15:21:45;;;;;;;4.10;1.80;;;;;;;;;;5137657;27;20573;-70
2022/11/11 15:24:19;;;;;;;6.03;1.53;;;;;;;;;;5137148;27;20909;-69
2022/11/11 15:26:52;;;;;;;6.30;2.83;;;;;;;;;;5138633;27;20768;-70
2022/11/11 15:29:42;;;;;;;5.97;1.90;;;;;;;;;;5130829;27;20438;-70
2022/11/11 15:32:20;;;;;;;7.00;2.77;;;;;;;;;;5113862;28;20486;-70
2022/11/11 15:34:55;;;;;;;13.43;6.23;;;;;;;;;;5137306;27;20453;-70
2022/11/11 15:37:27;;;;;;;18.07;10.10;;;;;;;;;;5122782;27;20573;-69
2022/11/11 15:40:00;;;;;;;16.07;7.13;;;;;;;;;;5130472;27;20441;-69
2022/11/11 15:42:30;;;;;;;12.37;7.10;;;;;;;;;;5116073;28;20540;-70
2022/11/11 15:45:03;;;;;;;9.37;5.90;;;;;;;;;;5131474;27;20441;-69
2022/11/11 15:47:38;;;;;;;9.53;5.27;;;;;;;;;;5137717;27;20464;-69
2022/11/11 15:50:17;;;;;;;9.13;3.40;;;;;;;;;;5135883;27;20484;-69
2022/11/11 15:52:55;;;;;;;6.70;3.97;;;;;;;;;;5138659;27;20461;-70
2022/11/11 15:55:26;;;;;;;6.80;3.97;;;;;;;;;;5136183;27;20441;-70
2022/11/11 15:57:56;;;;;;;10.83;4.23;;;;;;;;;;5116187;28;20485;-70
2022/11/11 16:00:39;;;;;;;10.33;5.40;;;;;;;;;;5116334;27;20521;-70
2022/11/11 16:03:14;;;;;;;7.93;4.43;;;;;;;;;;5114218;28;20553;-69
2022/11/11 16:05:56;;;;;;;7.57;5.43;;;;;;;;;;5120181;27;20728;-70
2022/11/11 16:08:31;;;;;;;7.23;5.10;;;;;;;;;;5122312;27;20990;-69
2022/11/11 16:11:00;;;;;;;6.10;3.20;;;;;;;;;;5132785;27;20469;-69
2022/11/11 16:13:42;;;;;;;7.00;4.17;;;;;;;;;;5129665;27;20451;-71
2022/11/11 16:16:11;;;;;;;6.40;3.73;;;;;;;;;;5116064;28;20462;-70
2022/11/11 16:18:44;;;;;;;8.87;3.57;;;;;;;;;;5116509;28;20527;-71
2022/11/11 16:21:14;;;;;;;6.93;4.20;;;;;;;;;;5137092;27;20460;-70
2022/11/11 16:23:42;;;;;;;8.53;3.90;;;;;;;;;;5135128;27;20495;-69
2022/11/11 16:26:10;;;;;;;11.53;4.70;;;;;;;;;;5134877;27;20735;-70
2022/11/11 16:28:40;;;;;;;8.33;4.17;;;;;;;;;;5137690;27;20450;-70
2022/11/11 16:31:22;;;;;;;7.27;3.50;;;;;;;;;;5128715;27;20482;-70
2022/11/11 16:33:54;;;;;;;7.80;4.73;;;;;;;;;;5121746;27;21056;-69
2022/11/11 16:36:26;;;;;;;6.13;3.47;;;;;;;;;;5129072;27;20812;-71
2022/11/11 16:38:54;;;;;;;9.70;4.67;;;;;;;;;;5134520;27;20454;-70
2022/11/11 16:41:25;;;;;;;11.50;5.23;;;;;;;;;;5136504;27;20453;-70
2022/11/11 16:44:00;;;;;;;5.73;4.57;;;;;;;;;;5134196;27;20462;-71
2022/11/11 16:46:41;;;;;;;9.50;4.10;;;;;;;;;;5145930;27;20464;-70